sensor_id;sensor_type;location;lat;lon;timestamp;P1;durP1;ratioP1;P2;durP2;ratioP2
14021;SDS011;7086;48.116;11.580;2024-03-22T00:00:13;8.07;;;7.35;;
14021;SDS011;7086;48.116;11.580;2024-03-22T00:02:40;7.68;;;7.07;;
14021;SDS011;7086;48.116;11.580;2024-03-22T00:05:07;9.23;;;8.55;;
14021;SDS011;7086;48.116;11.580;2024-03-22T00:07:33;9.40;;;8.40;;
14021;SDS011;7086;48.116;11.580;2024-03-22T00:10:00;9.43;;;8.43;;
14021;SDS011;7086;48.116;11.580;2024-03-22T00:12:28;9.00;;;7.88;;
14021;SDS011;7086;48.116;11.580;2024-03-22T00:14:55;9.52;;;8.57;;
14021;SDS011;7086;48.116;11.580;2024-03-22T00:17:21;8.32;;;7.53;;
14021;SDS011;7086;48.116;11.580;2024-03-22T00:19:48;8.90;;;8.00;;
14021;SDS011;7086;48.116;11.580;2024-03-22T00:22:14;8.55;;;7.85;;
14021;SDS011;7086;48.116;11.580;2024-03-22T00:24:41;11.20;;;9.23;;
14021;SDS011;7086;48.116;11.580;2024-03-22T00:27:07;8.98;;;8.10;;
14021;SDS011;7086;48.116;11.580;2024-03-22T00:29:35;11.68;;;8.88;;
14021;SDS011;7086;48.116;11.580;2024-03-22T00:32:01;9.15;;;8.05;;
14021;SDS011;7086;48.116;11.580;2024-03-22T00:34:28;8.82;;;8.15;;
14021;SDS011;7086;48.116;11.580;2024-03-22T00:36:54;9.80;;;9.00;;
14021;SDS011;7086;48.116;11.580;2024-03-22T00:39:21;10.13;;;9.23;;
14021;SDS011;7086;48.116;11.580;2024-03-22T00:41:47;13.77;;;8.48;;
14021;SDS011;7086;48.116;11.580;2024-03-22T00:44:16;9.43;;;8.32;;
14021;SDS011;7086;48.116;11.580;2024-03-22T00:46:44;9.43;;;8.52;;
14021;SDS011;7086;48.116;11.580;2024-03-22T00:49:12;9.52;;;8.63;;
14021;SDS011;7086;48.116;11.580;2024-03-22T00:51:39;9.45;;;8.38;;
14021;SDS011;7086;48.116;11.580;2024-03-22T00:54:08;10.25;;;8.75;;
14021;SDS011;7086;48.116;11.580;2024-03-22T00:56:36;9.52;;;8.75;;
14021;SDS011;7086;48.116;11.580;2024-03-22T00:59:05;9.95;;;8.88;;
14021;SDS011;7086;48.116;11.580;2024-03-22T01:01:32;10.48;;;9.48;;
14021;SDS011;7086;48.116;11.580;2024-03-22T01:04:00;10.35;;;9.45;;
14021;SDS011;7086;48.116;11.580;2024-03-22T01:06:26;10.20;;;9.18;;
14021;SDS011;7086;48.116;11.580;2024-03-22T01:08:53;10.25;;;9.15;;
14021;SDS011;7086;48.116;11.580;2024-03-22T01:11:19;11.00;;;9.15;;
14021;SDS011;7086;48.116;11.580;2024-03-22T01:13:47;10.05;;;8.55;;
14021;SDS011;7086;48.116;11.580;2024-03-22T01:16:13;9.07;;;8.35;;
14021;SDS011;7086;48.116;11.580;2024-03-22T01:18:40;10.57;;;8.30;;
14021;SDS011;7086;48.116;11.580;2024-03-22T01:21:08;11.60;;;8.82;;
14021;SDS011;7086;48.116;11.580;2024-03-22T01:23:35;9.55;;;8.55;;
14021;SDS011;7086;48.116;11.580;2024-03-22T01:26:00;11.30;;;8.02;;
14021;SDS011;7086;48.116;11.580;2024-03-22T01:28:27;9.90;;;8.90;;
14021;SDS011;7086;48.116;11.580;2024-03-22T01:30:53;9.95;;;8.15;;
14021;SDS011;7086;48.116;11.580;2024-03-22T01:33:20;11.23;;;8.63;;
14021;SDS011;7086;48.116;11.580;2024-03-22T01:35:46;12.07;;;8.18;;
14021;SDS011;7086;48.116;11.580;2024-03-22T01:38:15;9.57;;;8.43;;
14021;SDS011;7086;48.116;11.580;2024-03-22T01:40:41;10.25;;;7.95;;
14021;SDS011;7086;48.116;11.580;2024-03-22T01:43:08;8.48;;;7.78;;
14021;SDS011;7086;48.116;11.580;2024-03-22T01:45:34;11.10;;;8.18;;
14021;SDS011;7086;48.116;11.580;2024-03-22T01:48:03;8.55;;;7.72;;
14021;SDS011;7086;48.116;11.580;2024-03-22T01:50:29;9.27;;;8.05;;
14021;SDS011;7086;48.116;11.580;2024-03-22T01:52:56;8.38;;;7.53;;
14021;SDS011;7086;48.116;11.580;2024-03-22T01:55:24;9.20;;;8.27;;
14021;SDS011;7086;48.116;11.580;2024-03-22T01:57:52;8.43;;;7.72;;
14021;SDS011;7086;48.116;11.580;2024-03-22T02:00:18;8.93;;;7.88;;
14021;SDS011;7086;48.116;11.580;2024-03-22T02:02:46;10.38;;;8.18;;
14021;SDS011;7086;48.116;11.580;2024-03-22T02:05:12;8.52;;;7.72;;
14021;SDS011;7086;48.116;11.580;2024-03-22T02:07:40;8.80;;;7.88;;
14021;SDS011;7086;48.116;11.580;2024-03-22T02:10:06;10.38;;;7.47;;
14021;SDS011;7086;48.116;11.580;2024-03-22T02:12:37;8.63;;;7.72;;
14021;SDS011;7086;48.116;11.580;2024-03-22T02:15:03;8.85;;;7.97;;
14021;SDS011;7086;48.116;11.580;2024-03-22T02:17:31;9.50;;;8.48;;
14021;SDS011;7086;48.116;11.580;2024-03-22T02:19:57;9.45;;;8.68;;
14021;SDS011;7086;48.116;11.580;2024-03-22T02:22:25;11.27;;;8.93;;
14021;SDS011;7086;48.116;11.580;2024-03-22T02:24:53;11.15;;;9.70;;
14021;SDS011;7086;48.116;11.580;2024-03-22T02:27:20;9.70;;;8.82;;
14021;SDS011;7086;48.116;11.580;2024-03-22T02:29:46;10.68;;;9.57;;
14021;SDS011;7086;48.116;11.580;2024-03-22T02:32:13;11.20;;;9.30;;
14021;SDS011;7086;48.116;11.580;2024-03-22T02:34:39;9.68;;;8.90;;
14021;SDS011;7086;48.116;11.580;2024-03-22T02:37:06;11.13;;;10.05;;
14021;SDS011;7086;48.116;11.580;2024-03-22T02:39:32;10.98;;;9.88;;
14021;SDS011;7086;48.116;11.580;2024-03-22T02:41:59;10.75;;;9.70;;
14021;SDS011;7086;48.116;11.580;2024-03-22T02:44:26;10.63;;;9.60;;
14021;SDS011;7086;48.116;11.580;2024-03-22T02:46:52;10.60;;;9.60;;
14021;SDS011;7086;48.116;11.580;2024-03-22T02:49:19;15.02;;;9.98;;
14021;SDS011;7086;48.116;11.580;2024-03-22T02:51:45;10.27;;;9.32;;
14021;SDS011;7086;48.116;11.580;2024-03-22T02:54:12;10.55;;;9.48;;
14021;SDS011;7086;48.116;11.580;2024-03-22T02:56:38;12.85;;;9.65;;
14021;SDS011;7086;48.116;11.580;2024-03-22T02:59:06;9.52;;;8.43;;
14021;SDS011;7086;48.116;11.580;2024-03-22T03:01:32;11.25;;;9.82;;
14021;SDS011;7086;48.116;11.580;2024-03-22T03:03:59;10.20;;;9.07;;
14021;SDS011;7086;48.116;11.580;2024-03-22T03:06:25;10.40;;;9.20;;
14021;SDS011;7086;48.116;11.580;2024-03-22T03:08:52;10.13;;;9.13;;
14021;SDS011;7086;48.116;11.580;2024-03-22T03:11:18;10.70;;;9.60;;
14021;SDS011;7086;48.116;11.580;2024-03-22T03:13:45;10.88;;;9.88;;
14021;SDS011;7086;48.116;11.580;2024-03-22T03:16:12;10.68;;;9.77;;
14021;SDS011;7086;48.116;11.580;2024-03-22T03:18:39;10.52;;;9.50;;
14021;SDS011;7086;48.116;11.580;2024-03-22T03:21:06;12.90;;;10.65;;
14021;SDS011;7086;48.116;11.580;2024-03-22T03:23:33;11.60;;;10.13;;
14021;SDS011;7086;48.116;11.580;2024-03-22T03:25:59;11.27;;;9.90;;
14021;SDS011;7086;48.116;11.580;2024-03-22T03:28:27;9.82;;;8.82;;
14021;SDS011;7086;48.116;11.580;2024-03-22T03:30:53;10.75;;;8.68;;
14021;SDS011;7086;48.116;11.580;2024-03-22T03:33:21;10.10;;;8.25;;
14021;SDS011;7086;48.116;11.580;2024-03-22T03:35:47;10.77;;;9.13;;
14021;SDS011;7086;48.116;11.580;2024-03-22T03:38:14;10.02;;;9.02;;
14021;SDS011;7086;48.116;11.580;2024-03-22T03:40:40;10.27;;;9.38;;
14021;SDS011;7086;48.116;11.580;2024-03-22T03:43:07;10.85;;;9.85;;
14021;SDS011;7086;48.116;11.580;2024-03-22T03:45:35;12.10;;;10.43;;
14021;SDS011;7086;48.116;11.580;2024-03-22T03:48:03;12.13;;;9.07;;
14021;SDS011;7086;48.116;11.580;2024-03-22T03:50:31;10.95;;;9.85;;
14021;SDS011;7086;48.116;11.580;2024-03-22T03:52:58;10.63;;;9.23;;
14021;SDS011;7086;48.116;11.580;2024-03-22T03:55:24;11.93;;;8.80;;
14021;SDS011;7086;48.116;11.580;2024-03-22T03:57:51;10.50;;;9.60;;
14021;SDS011;7086;48.116;11.580;2024-03-22T04:00:17;11.23;;;10.15;;
14021;SDS011;7086;48.116;11.580;2024-03-22T04:02:44;10.73;;;9.63;;
14021;SDS011;7086;48.116;11.580;2024-03-22T04:05:10;11.20;;;9.93;;
14021;SDS011;7086;48.116;11.580;2024-03-22T04:07:39;10.23;;;9.30;;
14021;SDS011;7086;48.116;11.580;2024-03-22T04:10:07;12.05;;;9.65;;
14021;SDS011;7086;48.116;11.580;2024-03-22T04:12:35;10.35;;;9.05;;
14021;SDS011;7086;48.116;11.580;2024-03-22T04:15:01;11.20;;;10.10;;
14021;SDS011;7086;48.116;11.580;2024-03-22T04:17:28;10.20;;;9.20;;
14021;SDS011;7086;48.116;11.580;2024-03-22T04:19:54;10.30;;;9.27;;
14021;SDS011;7086;48.116;11.580;2024-03-22T04:22:21;10.30;;;9.30;;
14021;SDS011;7086;48.116;11.580;2024-03-22T04:24:48;13.02;;;9.70;;
14021;SDS011;7086;48.116;11.580;2024-03-22T04:27:15;10.40;;;9.23;;
14021;SDS011;7086;48.116;11.580;2024-03-22T04:29:41;8.77;;;7.88;;
14021;SDS011;7086;48.116;11.580;2024-03-22T04:32:08;10.00;;;9.10;;
14021;SDS011;7086;48.116;11.580;2024-03-22T04:34:34;9.27;;;8.38;;
14021;SDS011;7086;48.116;11.580;2024-03-22T04:37:01;10.55;;;9.30;;
14021;SDS011;7086;48.116;11.580;2024-03-22T04:39:28;10.52;;;8.50;;
14021;SDS011;7086;48.116;11.580;2024-03-22T04:41:56;9.35;;;8.45;;
14021;SDS011;7086;48.116;11.580;2024-03-22T04:44:23;9.88;;;9.07;;
14021;SDS011;7086;48.116;11.580;2024-03-22T04:46:50;11.48;;;8.73;;
14021;SDS011;7086;48.116;11.580;2024-03-22T04:49:17;10.50;;;9.23;;
14021;SDS011;7086;48.116;11.580;2024-03-22T04:51:43;9.68;;;8.68;;
14021;SDS011;7086;48.116;11.580;2024-03-22T04:54:10;10.13;;;8.88;;
14021;SDS011;7086;48.116;11.580;2024-03-22T04:56:36;9.43;;;8.45;;
14021;SDS011;7086;48.116;11.580;2024-03-22T04:59:05;9.73;;;8.73;;
14021;SDS011;7086;48.116;11.580;2024-03-22T05:01:31;14.95;;;8.85;;
14021;SDS011;7086;48.116;11.580;2024-03-22T05:03:58;10.23;;;8.90;;
14021;SDS011;7086;48.116;11.580;2024-03-22T05:06:24;10.23;;;9.05;;
14021;SDS011;7086;48.116;11.580;2024-03-22T05:08:51;9.35;;;8.52;;
14021;SDS011;7086;48.116;11.580;2024-03-22T05:11:17;9.60;;;8.80;;
14021;SDS011;7086;48.116;11.580;2024-03-22T05:13:44;9.95;;;9.05;;
14021;SDS011;7086;48.116;11.580;2024-03-22T05:16:13;10.15;;;9.10;;
14021;SDS011;7086;48.116;11.580;2024-03-22T05:18:40;10.18;;;9.02;;
14021;SDS011;7086;48.116;11.580;2024-03-22T05:21:06;11.70;;;9.13;;
14021;SDS011;7086;48.116;11.580;2024-03-22T05:23:33;9.35;;;8.40;;
14021;SDS011;7086;48.116;11.580;2024-03-22T05:25:59;9.45;;;8.35;;
14021;SDS011;7086;48.116;11.580;2024-03-22T05:28:26;8.85;;;7.72;;
14021;SDS011;7086;48.116;11.580;2024-03-22T05:30:52;10.75;;;8.27;;
14021;SDS011;7086;48.116;11.580;2024-03-22T05:33:20;11.73;;;7.43;;
14021;SDS011;7086;48.116;11.580;2024-03-22T05:35:46;9.15;;;7.68;;
14021;SDS011;7086;48.116;11.580;2024-03-22T05:38:13;7.85;;;7.07;;
14021;SDS011;7086;48.116;11.580;2024-03-22T05:40:39;9.95;;;7.78;;
14021;SDS011;7086;48.116;11.580;2024-03-22T05:43:06;10.88;;;8.10;;
14021;SDS011;7086;48.116;11.580;2024-03-22T05:45:32;16.58;;;7.85;;
14021;SDS011;7086;48.116;11.580;2024-03-22T05:47:59;8.82;;;7.28;;
14021;SDS011;7086;48.116;11.580;2024-03-22T05:50:26;8.02;;;6.93;;
14021;SDS011;7086;48.116;11.580;2024-03-22T05:52:53;9.60;;;8.57;;
14021;SDS011;7086;48.116;11.580;2024-03-22T05:55:19;8.43;;;6.97;;
14021;SDS011;7086;48.116;11.580;2024-03-22T05:57:46;8.20;;;7.32;;
14021;SDS011;7086;48.116;11.580;2024-03-22T06:00:12;7.82;;;6.93;;
14021;SDS011;7086;48.116;11.580;2024-03-22T06:02:39;11.48;;;7.10;;
14021;SDS011;7086;48.116;11.580;2024-03-22T06:05:05;9.45;;;6.43;;
14021;SDS011;7086;48.116;11.580;2024-03-22T06:07:34;7.90;;;6.15;;
14021;SDS011;7086;48.116;11.580;2024-03-22T06:10:07;8.07;;;6.43;;
14021;SDS011;7086;48.116;11.580;2024-03-22T06:12:35;9.25;;;6.47;;
14021;SDS011;7086;48.116;11.580;2024-03-22T06:15:01;7.53;;;6.80;;
14021;SDS011;7086;48.116;11.580;2024-03-22T06:17:31;6.28;;;5.70;;
14021;SDS011;7086;48.116;11.580;2024-03-22T06:19:58;6.13;;;5.60;;
14021;SDS011;7086;48.116;11.580;2024-03-22T06:22:25;15.38;;;10.73;;
14021;SDS011;7086;48.116;11.580;2024-03-22T06:24:53;11.48;;;10.27;;
14021;SDS011;7086;48.116;11.580;2024-03-22T06:27:20;14.38;;;8.32;;
14021;SDS011;7086;48.116;11.580;2024-03-22T06:29:46;7.03;;;6.32;;
14021;SDS011;7086;48.116;11.580;2024-03-22T06:32:13;7.07;;;6.38;;
14021;SDS011;7086;48.116;11.580;2024-03-22T06:34:39;7.20;;;6.50;;
14021;SDS011;7086;48.116;11.580;2024-03-22T06:37:06;6.40;;;5.88;;
14021;SDS011;7086;48.116;11.580;2024-03-22T06:39:32;7.60;;;5.88;;
14021;SDS011;7086;48.116;11.580;2024-03-22T06:42:00;6.28;;;5.68;;
14021;SDS011;7086;48.116;11.580;2024-03-22T06:44:26;6.00;;;5.50;;
14021;SDS011;7086;48.116;11.580;2024-03-22T06:46:53;7.55;;;6.20;;
14021;SDS011;7086;48.116;11.580;2024-03-22T06:49:19;5.93;;;5.35;;
14021;SDS011;7086;48.116;11.580;2024-03-22T06:51:46;6.85;;;6.35;;
14021;SDS011;7086;48.116;11.580;2024-03-22T06:54:12;9.95;;;6.20;;
14021;SDS011;7086;48.116;11.580;2024-03-22T06:56:39;6.38;;;5.78;;
14021;SDS011;7086;48.116;11.580;2024-03-22T06:59:07;6.63;;;6.03;;
14021;SDS011;7086;48.116;11.580;2024-03-22T07:01:34;5.93;;;5.43;;
14021;SDS011;7086;48.116;11.580;2024-03-22T07:04:00;9.48;;;6.90;;
14021;SDS011;7086;48.116;11.580;2024-03-22T07:06:27;6.13;;;5.47;;
14021;SDS011;7086;48.116;11.580;2024-03-22T07:08:53;12.65;;;6.80;;
14021;SDS011;7086;48.116;11.580;2024-03-22T07:11:21;54.55;;;36.30;;
14021;SDS011;7086;48.116;11.580;2024-03-22T07:13:47;10.27;;;9.27;;
14021;SDS011;7086;48.116;11.580;2024-03-22T07:16:15;9.15;;;7.10;;
14021;SDS011;7086;48.116;11.580;2024-03-22T07:18:41;7.18;;;6.47;;
14021;SDS011;7086;48.116;11.580;2024-03-22T07:21:08;6.15;;;5.65;;
14021;SDS011;7086;48.116;11.580;2024-03-22T07:23:34;6.93;;;5.50;;
14021;SDS011;7086;48.116;11.580;2024-03-22T07:26:01;5.90;;;5.30;;
14021;SDS011;7086;48.116;11.580;2024-03-22T07:28:27;6.22;;;5.10;;
14021;SDS011;7086;48.116;11.580;2024-03-22T07:30:54;5.60;;;5.10;;
14021;SDS011;7086;48.116;11.580;2024-03-22T07:33:21;8.93;;;5.30;;
14021;SDS011;7086;48.116;11.580;2024-03-22T07:35:49;6.68;;;5.28;;
14021;SDS011;7086;48.116;11.580;2024-03-22T07:38:15;6.07;;;5.47;;
14021;SDS011;7086;48.116;11.580;2024-03-22T07:40:42;6.07;;;5.57;;
14021;SDS011;7086;48.116;11.580;2024-03-22T07:43:07;5.28;;;4.88;;
14021;SDS011;7086;48.116;11.580;2024-03-22T07:45:34;4.68;;;4.28;;
14021;SDS011;7086;48.116;11.580;2024-03-22T07:48:00;5.85;;;5.05;;
14021;SDS011;7086;48.116;11.580;2024-03-22T07:50:29;5.80;;;5.07;;
14021;SDS011;7086;48.116;11.580;2024-03-22T07:52:55;4.18;;;3.88;;
14021;SDS011;7086;48.116;11.580;2024-03-22T07:55:22;4.80;;;4.40;;
14021;SDS011;7086;48.116;11.580;2024-03-22T07:57:48;5.95;;;4.70;;
14021;SDS011;7086;48.116;11.580;2024-03-22T08:00:16;4.32;;;4.00;;
14021;SDS011;7086;48.116;11.580;2024-03-22T08:02:42;4.90;;;4.50;;
14021;SDS011;7086;48.116;11.580;2024-03-22T08:05:09;8.30;;;4.53;;
14021;SDS011;7086;48.116;11.580;2024-03-22T08:07:36;4.53;;;4.18;;
14021;SDS011;7086;48.116;11.580;2024-03-22T08:10:04;5.35;;;4.43;;
14021;SDS011;7086;48.116;11.580;2024-03-22T08:12:30;13.07;;;11.77;;
14021;SDS011;7086;48.116;11.580;2024-03-22T08:14:58;7.78;;;5.88;;
14021;SDS011;7086;48.116;11.580;2024-03-22T08:17:24;5.20;;;4.80;;
14021;SDS011;7086;48.116;11.580;2024-03-22T08:19:51;4.72;;;3.95;;
14021;SDS011;7086;48.116;11.580;2024-03-22T08:22:17;5.97;;;4.57;;
14021;SDS011;7086;48.116;11.580;2024-03-22T08:24:45;4.72;;;3.92;;
14021;SDS011;7086;48.116;11.580;2024-03-22T08:27:11;4.70;;;4.30;;
14021;SDS011;7086;48.116;11.580;2024-03-22T08:29:39;3.78;;;3.42;;
14021;SDS011;7086;48.116;11.580;2024-03-22T08:32:06;4.07;;;3.78;;
14021;SDS011;7086;48.116;11.580;2024-03-22T08:34:33;4.05;;;3.67;;
14021;SDS011;7086;48.116;11.580;2024-03-22T08:36:59;6.45;;;3.88;;
14021;SDS011;7086;48.116;11.580;2024-03-22T08:39:27;4.63;;;3.95;;
14021;SDS011;7086;48.116;11.580;2024-03-22T08:41:54;3.35;;;3.17;;
14021;SDS011;7086;48.116;11.580;2024-03-22T08:44:22;3.55;;;3.25;;
14021;SDS011;7086;48.116;11.580;2024-03-22T08:46:47;3.40;;;3.10;;
14021;SDS011;7086;48.116;11.580;2024-03-22T08:49:15;3.15;;;2.95;;
14021;SDS011;7086;48.116;11.580;2024-03-22T08:51:41;3.17;;;2.97;;
14021;SDS011;7086;48.116;11.580;2024-03-22T08:54:08;3.55;;;3.35;;
14021;SDS011;7086;48.116;11.580;2024-03-22T08:56:34;2.65;;;2.55;;
14021;SDS011;7086;48.116;11.580;2024-03-22T08:59:03;8.32;;;7.53;;
14021;SDS011;7086;48.116;11.580;2024-03-22T09:01:29;26.83;;;24.38;;
14021;SDS011;7086;48.116;11.580;2024-03-22T09:03:57;9.57;;;8.68;;
14021;SDS011;7086;48.116;11.580;2024-03-22T09:06:23;4.70;;;4.40;;
14021;SDS011;7086;48.116;11.580;2024-03-22T09:08:50;3.42;;;3.22;;
14021;SDS011;7086;48.116;11.580;2024-03-22T09:11:16;2.88;;;2.67;;
14021;SDS011;7086;48.116;11.580;2024-03-22T09:13:43;2.75;;;2.58;;
14021;SDS011;7086;48.116;11.580;2024-03-22T09:16:16;2.45;;;2.22;;
14021;SDS011;7086;48.116;11.580;2024-03-22T09:18:43;3.47;;;3.15;;
14021;SDS011;7086;48.116;11.580;2024-03-22T09:21:09;3.15;;;2.95;;
14021;SDS011;7086;48.116;11.580;2024-03-22T09:23:36;2.90;;;2.70;;
14021;SDS011;7086;48.116;11.580;2024-03-22T09:26:02;3.65;;;3.15;;
14021;SDS011;7086;48.116;11.580;2024-03-22T09:28:29;10.07;;;9.07;;
14021;SDS011;7086;48.116;11.580;2024-03-22T09:30:55;4.25;;;3.67;;
14021;SDS011;7086;48.116;11.580;2024-03-22T09:33:24;2.75;;;2.55;;
14021;SDS011;7086;48.116;11.580;2024-03-22T09:35:50;2.45;;;2.25;;
14021;SDS011;7086;48.116;11.580;2024-03-22T09:38:17;4.20;;;3.15;;
14021;SDS011;7086;48.116;11.580;2024-03-22T09:40:43;2.75;;;2.55;;
14021;SDS011;7086;48.116;11.580;2024-03-22T09:43:10;2.25;;;2.15;;
14021;SDS011;7086;48.116;11.580;2024-03-22T09:45:43;2.30;;;2.17;;
14021;SDS011;7086;48.116;11.580;2024-03-22T09:48:11;2.13;;;1.90;;
14021;SDS011;7086;48.116;11.580;2024-03-22T09:50:39;2.10;;;1.90;;
14021;SDS011;7086;48.116;11.580;2024-03-22T09:53:07;2.40;;;2.20;;
14021;SDS011;7086;48.116;11.580;2024-03-22T09:55:35;2.15;;;1.80;;
14021;SDS011;7086;48.116;11.580;2024-03-22T09:58:05;3.10;;;1.92;;
14021;SDS011;7086;48.116;11.580;2024-03-22T10:00:30;2.30;;;2.10;;
14021;SDS011;7086;48.116;11.580;2024-03-22T10:02:58;2.35;;;2.25;;
14021;SDS011;7086;48.116;11.580;2024-03-22T10:05:25;2.40;;;2.30;;
14021;SDS011;7086;48.116;11.580;2024-03-22T10:07:53;4.03;;;2.38;;
14021;SDS011;7086;48.116;11.580;2024-03-22T10:10:20;3.35;;;3.05;;
14021;SDS011;7086;48.116;11.580;2024-03-22T10:12:47;2.95;;;2.70;;
14021;SDS011;7086;48.116;11.580;2024-03-22T10:15:13;3.05;;;2.70;;
14021;SDS011;7086;48.116;11.580;2024-03-22T10:17:40;2.60;;;2.40;;
14021;SDS011;7086;48.116;11.580;2024-03-22T10:20:07;2.38;;;2.20;;
14021;SDS011;7086;48.116;11.580;2024-03-22T10:22:41;30.50;;;27.17;;
14021;SDS011;7086;48.116;11.580;2024-03-22T10:25:10;12.73;;;11.25;;
14021;SDS011;7086;48.116;11.580;2024-03-22T10:27:38;5.10;;;4.70;;
14021;SDS011;7086;48.116;11.580;2024-03-22T10:30:06;2.97;;;2.83;;
14021;SDS011;7086;48.116;11.580;2024-03-22T10:32:36;2.65;;;2.38;;
14021;SDS011;7086;48.116;11.580;2024-03-22T10:35:02;2.45;;;2.25;;
14021;SDS011;7086;48.116;11.580;2024-03-22T10:37:32;3.00;;;2.47;;
14021;SDS011;7086;48.116;11.580;2024-03-22T10:39:58;2.53;;;2.35;;
14021;SDS011;7086;48.116;11.580;2024-03-22T10:42:34;2.60;;;2.40;;
14021;SDS011;7086;48.116;11.580;2024-03-22T10:45:00;2.50;;;2.30;;
14021;SDS011;7086;48.116;11.580;2024-03-22T10:47:29;2.47;;;2.28;;
14021;SDS011;7086;48.116;11.580;2024-03-22T10:49:57;2.75;;;2.55;;
14021;SDS011;7086;48.116;11.580;2024-03-22T10:52:32;2.17;;;1.77;;
14021;SDS011;7086;48.116;11.580;2024-03-22T10:55:01;2.42;;;2.22;;
14021;SDS011;7086;48.116;11.580;2024-03-22T10:57:31;2.28;;;2.15;;
14021;SDS011;7086;48.116;11.580;2024-03-22T11:00:00;1.67;;;1.67;;
14021;SDS011;7086;48.116;11.580;2024-03-22T11:02:29;2.88;;;2.30;;
14021;SDS011;7086;48.116;11.580;2024-03-22T11:04:58;4.60;;;3.35;;
14021;SDS011;7086;48.116;11.580;2024-03-22T11:07:28;14.82;;;13.43;;
14021;SDS011;7086;48.116;11.580;2024-03-22T11:09:55;4.88;;;4.47;;
14021;SDS011;7086;48.116;11.580;2024-03-22T11:12:23;3.60;;;3.30;;
14021;SDS011;7086;48.116;11.580;2024-03-22T11:14:50;2.92;;;2.05;;
14021;SDS011;7086;48.116;11.580;2024-03-22T11:17:20;2.35;;;2.25;;
14021;SDS011;7086;48.116;11.580;2024-03-22T11:19:50;2.10;;;2.00;;
14021;SDS011;7086;48.116;11.580;2024-03-22T11:22:17;2.05;;;1.85;;
14021;SDS011;7086;48.116;11.580;2024-03-22T11:24:44;2.58;;;2.40;;
14021;SDS011;7086;48.116;11.580;2024-03-22T11:27:11;2.15;;;2.05;;
14021;SDS011;7086;48.116;11.580;2024-03-22T11:29:37;2.85;;;2.45;;
14021;SDS011;7086;48.116;11.580;2024-03-22T11:32:06;2.63;;;2.53;;
14021;SDS011;7086;48.116;11.580;2024-03-22T11:34:36;2.30;;;2.08;;
14021;SDS011;7086;48.116;11.580;2024-03-22T11:37:04;3.83;;;2.70;;
14021;SDS011;7086;48.116;11.580;2024-03-22T11:39:32;2.85;;;2.65;;
14021;SDS011;7086;48.116;11.580;2024-03-22T11:42:00;2.42;;;2.33;;
14021;SDS011;7086;48.116;11.580;2024-03-22T11:44:26;2.80;;;2.60;;
14021;SDS011;7086;48.116;11.580;2024-03-22T11:46:53;2.05;;;1.95;;
14021;SDS011;7086;48.116;11.580;2024-03-22T11:49:21;5.70;;;5.15;;
14021;SDS011;7086;48.116;11.580;2024-03-22T11:51:51;3.83;;;3.13;;
14021;SDS011;7086;48.116;11.580;2024-03-22T11:54:19;3.08;;;2.70;;
14021;SDS011;7086;48.116;11.580;2024-03-22T11:56:46;2.85;;;2.65;;
14021;SDS011;7086;48.116;11.580;2024-03-22T11:59:12;2.70;;;2.38;;
14021;SDS011;7086;48.116;11.580;2024-03-22T12:01:40;3.08;;;2.78;;
14021;SDS011;7086;48.116;11.580;2024-03-22T12:04:06;2.50;;;2.28;;
14021;SDS011;7086;48.116;11.580;2024-03-22T12:06:34;3.00;;;2.65;;
14021;SDS011;7086;48.116;11.580;2024-03-22T12:09:02;2.70;;;2.60;;
14021;SDS011;7086;48.116;11.580;2024-03-22T12:11:29;2.60;;;2.40;;
14021;SDS011;7086;48.116;11.580;2024-03-22T12:13:56;2.97;;;2.78;;
14021;SDS011;7086;48.116;11.580;2024-03-22T12:16:24;2.60;;;2.40;;
14021;SDS011;7086;48.116;11.580;2024-03-22T12:18:50;5.90;;;5.32;;
14021;SDS011;7086;48.116;11.580;2024-03-22T12:21:17;6.10;;;5.60;;
14021;SDS011;7086;48.116;11.580;2024-03-22T12:23:43;3.67;;;3.40;;
14021;SDS011;7086;48.116;11.580;2024-03-22T12:26:11;2.83;;;2.63;;
14021;SDS011;7086;48.116;11.580;2024-03-22T12:28:38;2.80;;;2.70;;
14021;SDS011;7086;48.116;11.580;2024-03-22T12:31:07;2.97;;;2.78;;
14021;SDS011;7086;48.116;11.580;2024-03-22T12:33:34;2.95;;;2.75;;
14021;SDS011;7086;48.116;11.580;2024-03-22T12:36:01;3.08;;;2.85;;
14021;SDS011;7086;48.116;11.580;2024-03-22T12:38:27;2.70;;;2.50;;
14021;SDS011;7086;48.116;11.580;2024-03-22T12:40:54;2.75;;;2.55;;
14021;SDS011;7086;48.116;11.580;2024-03-22T12:43:21;2.63;;;2.53;;
14021;SDS011;7086;48.116;11.580;2024-03-22T12:45:48;2.58;;;2.47;;
14021;SDS011;7086;48.116;11.580;2024-03-22T12:48:15;3.30;;;3.00;;
14021;SDS011;7086;48.116;11.580;2024-03-22T12:50:42;3.35;;;3.15;;
14021;SDS011;7086;48.116;11.580;2024-03-22T12:53:08;3.40;;;3.10;;
14021;SDS011;7086;48.116;11.580;2024-03-22T12:55:35;2.65;;;2.45;;
14021;SDS011;7086;48.116;11.580;2024-03-22T12:58:01;2.63;;;2.42;;
14021;SDS011;7086;48.116;11.580;2024-03-22T13:00:31;3.03;;;2.83;;
14021;SDS011;7086;48.116;11.580;2024-03-22T13:02:58;2.60;;;2.38;;
14021;SDS011;7086;48.116;11.580;2024-03-22T13:05:26;2.80;;;2.60;;
14021;SDS011;7086;48.116;11.580;2024-03-22T13:07:52;3.15;;;2.30;;
14021;SDS011;7086;48.116;11.580;2024-03-22T13:10:19;2.55;;;2.42;;
14021;SDS011;7086;48.116;11.580;2024-03-22T13:12:45;2.47;;;2.17;;
14021;SDS011;7086;48.116;11.580;2024-03-22T13:15:12;2.85;;;2.65;;
14021;SDS011;7086;48.116;11.580;2024-03-22T13:17:40;3.42;;;2.55;;
14021;SDS011;7086;48.116;11.580;2024-03-22T13:20:07;4.07;;;2.03;;
14021;SDS011;7086;48.116;11.580;2024-03-22T13:22:36;2.92;;;2.50;;
14021;SDS011;7086;48.116;11.580;2024-03-22T13:25:04;2.58;;;2.15;;
14021;SDS011;7086;48.116;11.580;2024-03-22T13:27:32;2.30;;;2.10;;
14021;SDS011;7086;48.116;11.580;2024-03-22T13:29:59;3.13;;;2.30;;
14021;SDS011;7086;48.116;11.580;2024-03-22T13:32:25;1.90;;;1.80;;
14021;SDS011;7086;48.116;11.580;2024-03-22T13:34:54;8.70;;;7.05;;
14021;SDS011;7086;48.116;11.580;2024-03-22T13:37:20;22.42;;;20.05;;
14021;SDS011;7086;48.116;11.580;2024-03-22T13:39:48;6.45;;;5.88;;
14021;SDS011;7086;48.116;11.580;2024-03-22T13:42:14;2.75;;;2.50;;
14021;SDS011;7086;48.116;11.580;2024-03-22T13:44:41;3.10;;;2.28;;
14021;SDS011;7086;48.116;11.580;2024-03-22T13:47:08;2.45;;;1.85;;
14021;SDS011;7086;48.116;11.580;2024-03-22T13:49:35;2.22;;;1.88;;
14021;SDS011;7086;48.116;11.580;2024-03-22T13:52:02;1.60;;;1.50;;
14021;SDS011;7086;48.116;11.580;2024-03-22T13:54:32;3.83;;;2.15;;
14021;SDS011;7086;48.116;11.580;2024-03-22T13:56:58;3.35;;;1.88;;
14021;SDS011;7086;48.116;11.580;2024-03-22T13:59:25;1.73;;;1.52;;
14021;SDS011;7086;48.116;11.580;2024-03-22T14:01:51;1.50;;;1.40;;
14021;SDS011;7086;48.116;11.580;2024-03-22T14:04:18;1.52;;;1.40;;
14021;SDS011;7086;48.116;11.580;2024-03-22T14:06:45;5.28;;;1.58;;
14021;SDS011;7086;48.116;11.580;2024-03-22T14:09:15;1.65;;;1.50;;
14021;SDS011;7086;48.116;11.580;2024-03-22T14:11:41;1.30;;;1.20;;
14021;SDS011;7086;48.116;11.580;2024-03-22T14:14:09;1.23;;;1.23;;
14021;SDS011;7086;48.116;11.580;2024-03-22T14:16:36;1.60;;;1.50;;
14021;SDS011;7086;48.116;11.580;2024-03-22T14:19:04;1.70;;;1.30;;
14021;SDS011;7086;48.116;11.580;2024-03-22T14:21:30;1.70;;;1.60;;
14021;SDS011;7086;48.116;11.580;2024-03-22T14:24:00;4.63;;;2.17;;
14021;SDS011;7086;48.116;11.580;2024-03-22T14:26:29;1.63;;;1.52;;
14021;SDS011;7086;48.116;11.580;2024-03-22T14:28:56;2.13;;;2.03;;
14021;SDS011;7086;48.116;11.580;2024-03-22T14:31:22;1.88;;;1.77;;
14021;SDS011;7086;48.116;11.580;2024-03-22T14:33:50;1.70;;;1.60;;
14021;SDS011;7086;48.116;11.580;2024-03-22T14:36:16;3.75;;;1.40;;
14021;SDS011;7086;48.116;11.580;2024-03-22T14:38:43;2.05;;;1.40;;
14021;SDS011;7086;48.116;11.580;2024-03-22T14:41:09;16.05;;;12.27;;